• Join FlightAware (Why Join?)
  • Login
  • US Flag 
03:13AM EST


 

Airport Tracker/Info


-or-


 

Live Flight TrackerFlight Track Log ✈ UAL3740 ✈ 23-Apr-2013 ✈ KPVD - KIAD

Flight Track Log - Related Links

Times and Time Zones

All times are in EDT time to prevent confusion due to time zone crossing. See the UAL3740 flight status page for this flight to view local times or setup timezone preferences in your user account.

Time Position Orientation Groundspeed Altitude Reporting Facility
EDT Latitude Longitude Course Direction KTS MPH feet Rate Location/Type
10:21AM 41.7289 -71.4247 354° North 143 165 600  Level Boston Center
10:22AM 41.7831 -71.4322 354° North 185 213 3,100 2,269 Climbing Boston Center
10:23AM 41.8425 -71.5483 305° West 284 327 6,500 2,456 Climbing Boston Center
10:24AM 41.8786 -71.6400 298° West 284 327 9,200 2,100 Climbing Boston Center
10:25AM 41.9189 -71.7425 298° West 299 344 10,700 1,650 Climbing Boston Center
10:26AM 41.9592 -71.8539 296° West 325 374 12,500 1,950 Climbing Boston Center
10:27AM 41.9889 -71.9819 287° West 354 407 14,600 2,200 Climbing Boston Center
10:28AM 42.0186 -72.1075 288° West 360 414 16,900 2,200 Climbing Boston Center
10:29AM 42.0481 -72.2331 288° West 360 414 19,000 2,200 Climbing Boston Center
10:30AM 42.0753 -72.3394 289° West 354 407 21,300 2,000 Climbing Boston Center
10:31AM 42.1025 -72.4597 287° West 343 395 23,000 1,900 Climbing Boston Center
10:32AM 42.1294 -72.5772 287° West 343 395 25,100 1,700 Climbing Boston Center
10:33AM 42.1561 -72.7033 286° West 343 395 26,400 1,300 Climbing Boston Center
10:34AM 42.1100 -72.8122 240° Southwest 304 350 27,700 1,200 Climbing Boston Center
10:35AM 42.0619 -72.8903 230° Southwest 301 346 28,800 1,200 Climbing Boston Center
10:36AM 41.9967 -73.0017 232° Southwest 329 379 30,100 1,400 Climbing Boston Center
10:37AM 41.9400 -73.0989 232° Southwest 347 399 31,600 950 Climbing Boston Center
10:38AM 41.8853 -73.1931 232° Southwest 341 392 32,000 200 Climbing Boston Center
10:39AM 41.8864 -73.3297 271° West 340 391 32,000  Level Boston Center
10:40AM 41.9058 -73.4750 280° West 365 420 32,000  Level Boston Center
10:41AM 41.9108 -73.6228 273° West 389 448 32,000  Level Boston Center
10:43AM 41.7431 -73.8097 220° Southwest 338 389 32,000  Level New York Center
10:44AM 41.6439 -73.8581 200° South 354 407 32,000  Level New York Center
10:45AM 41.5617 -73.8958 199° South 361 415 32,000  Level New York Center
10:46AM 41.4606 -73.9464 201° Southwest 371 427 32,000  Level New York Center
10:47AM 41.3675 -73.9917 200° South 371 427 32,000  Level New York Center
10:48AM 41.2725 -74.0367 200° South 371 427 32,000  Level New York Center
10:49AM 41.1797 -74.0819 200° South 371 427 32,000  Level New York Center
10:50AM 41.1042 -74.1772 224° Southwest 371 427 32,000 -655 Level New York Center
10:51AM 41.0422 -74.2981 236° Southwest 371 427 30,700 -1,350 Descending New York Center
10:52AM 40.9844 -74.4214 238° Southwest 386 444 29,300 -1,279 Descending New York Center
10:53AM 40.9264 -74.5417 237° Southwest 397 457 28,100 -645 Descending New York Center
10:54AM 40.8783 -74.6736 244° Southwest 397 457 28,000 -51 Descending New York Center
10:55AM 40.8386 -74.8031 248° West 397 457 28,000  Level New York Center
10:56AM 40.7983 -74.9403 249° West 397 457 28,000  Level New York Center
10:57AM 40.7561 -75.0747 248° West 397 457 28,000  Level New York Center
10:58AM 40.7133 -75.2144 248° West 409 471 28,000 -359 Level New York Center
10:59AM 40.6708 -75.3486 247° West 409 471 27,300 -1,271 Descending New York Center
11:00AM 40.6200 -75.4764 242° Southwest 404 465 25,500 -2,016 Descending New York Center
11:01AM 40.5603 -75.6144 240° Southwest 398 458 23,200 -2,066 Descending New York Center
11:02AM 40.5047 -75.7414 240° Southwest 403 464 21,300 -1,627 Descending New York Center
11:03AM 40.4472 -75.8683 239° Southwest 403 464 20,000 -655 Descending New York Center
11:04AM 40.3694 -75.9797 228° Southwest 409 471 20,000  Level New York Center
11:05AM 40.2900 -76.0797 224° Southwest 414 476 20,000 -756 Level New York Center
11:06AM 40.2169 -76.1750 225° Southwest 409 471 18,500 -1,412 Descending New York Center
11:07AM 40.1306 -76.2850 224° Southwest 403 464 17,200 -1,105 Descending New York Center
11:10AM 40.0000 -76.5500 237° Southwest 392 451 15,000 -698 Descending Potomac TRACON
11:11AM 39.9500 -76.6667 241° Southwest 388 447 15,000  Level Potomac TRACON
11:12AM 39.9000 -76.7833 241° Southwest 388 447 15,000 -50 Level Potomac TRACON
11:13AM 39.8333 -76.9000 233° Southwest 379 436 14,900 -400 Descending Potomac TRACON
11:14AM 39.8000 -77.0000 247° West 317 365 14,200 -947 Descending Potomac TRACON
11:14AM 39.7500 -77.0667 226° Southwest 292 336 13,100 -1,263 Descending Potomac TRACON
11:15AM 39.7167 -77.1667 247° West 296 341 11,800 -1,350 Descending Potomac TRACON
11:16AM 39.6667 -77.2667 237° Southwest 290 334 10,400 -1,050 Descending Potomac TRACON
11:17AM 39.6167 -77.3333 226° Southwest 289 333 9,700 -1,100 Descending Potomac TRACON
11:18AM 39.5333 -77.3500 189° South 283 326 8,200 -1,300 Descending Potomac TRACON
11:19AM 39.4667 -77.3500 180° South 287 330 7,100 -750 Descending Potomac TRACON
11:20AM 39.3833 -77.3667 189° South 283 326 6,700 -783 Descending Potomac TRACON
11:21AM 39.3167 -77.3667 180° South 276 318 5,600 -939 Descending Potomac TRACON
11:22AM 39.2333 -77.3667 180° South 266 306 4,900 -800 Descending Potomac TRACON
11:23AM 39.1667 -77.3667 180° South 265 305 4,000 -450 Descending Potomac TRACON
11:24AM 39.1000 -77.3667 180° South 269 310 4,000  Level Potomac TRACON
11:25AM 39.0167 -77.3667 180° South 273 314 4,000  Level Potomac TRACON
11:26AM 38.9500 -77.3667 180° South 259 298 4,000 -450 Level Potomac TRACON
11:27AM 38.8833 -77.3667 180° South 216 249 3,100 -500 Descending Potomac TRACON
11:28AM 38.8167 -77.3667 180° South 198 228 3,000 -53 Descending Potomac TRACON
11:29AM 38.7667 -77.3667 180° South 201 231 3,000  Level Potomac TRACON
11:30AM 38.7167 -77.3667 180° South 197 227 3,000  Level Potomac TRACON
11:31AM 38.6667 -77.3667 180° South 201 231 3,000  Level Potomac TRACON
11:32AM 38.6500 -77.4333 252° West 205 236 3,000  Level Potomac TRACON
11:33AM 38.7000 -77.4333 360° North 183 211 3,000  Level Potomac TRACON